Richmond, TX (77469)

9:22 PM CDT on May 23, 2017 (GMT -0500)
Brazos Lakes | | Change Station
Active Advisory: Severe Thunderstorm Watch

Elev 75 ft 29.45 °N, 95.67 °W | Updated 14 seconds ago

Mostly Cloudy
Mostly Cloudy
66.1 °F
Feels Like 66.1 °F
N
4.0
Wind Variable Wind from ENE

Today
High -- | Low -- °F
--% Chance of Precip.
Yesterday
High -- | Low -- °F
Precip. -- in
Pressure 29.81 in
Visibility 10.0 miles
Clouds Few 1800 ft
Dew Point 63 °F
Humidity 91%
Rainfall 0.15 in
Snow Depth Not available.
6:26 AM 8:13 PM
Waning Crescent, 5% visible
METAR KSGR 240153Z 36012G23KT 10SM FEW018 21/18 A2981 RMK AO2 PK WND 35026/0129 RAE10 TSE05 SLP094 P0003 T02060178
Pressure 29.81 in
Visibility 10.0 miles
Clouds Few 1800 ft
Dew Point 63 °F
Humidity 91%
Rainfall 0.15 in
Snow Depth Not available.
6:26 AM 8:13 PM
Waning Crescent, 5% visible
METAR KSGR 240153Z 36012G23KT 10SM FEW018 21/18 A2981 RMK AO2 PK WND 35026/0129 RAE10 TSE05 SLP094 P0003 T02060178

Get Your Daily Forecast Email!

Thanks for signing up!

Be on the lookout for a verification email in your inbox.

You'll start receiving severe weather alerts in your inbox..

×

10-Day Weather Forecast

Almanac

Astronomy

May. 23, 2017 Rise Set
Actual Time
Civil Twilight
Nautical Twilight
Astronomical Twilight
Moon
Length of Visible Light
Length of Day
Tomorrow will be .
, % of the Moon is Illuminated

Today's Extremes

State Highs State Lows

Community

WunderPhotos

Category 6

Welcome to Category 6. This is the collective home for Weather Underground's featured writeups by Dr. Jeff Masters (right), Bob Henson (left), Chris Burt, and other regular contributors.

Nearby

Air Quality

  Air Quality AQ Index Pollutant
Not available.

Snow Depth

Station Depth Elevation

Earthquake Activity

City Distance Mag. Time & Date
Minimum magnitude displayed is 2.5.

Coastal Water Temperatures

Place Temperature

Stations

Nearby Weather Stations

Station Location Temp. Windchill Dew Point Humidity Wind Precip. Elev Updated Type
                   

Watches & Warnings

Severe Thunderstorm Watch
Issued: 9:20 PM CDT May. 23, 2017 – National Weather Service


The National Weather Service has cancelled Severe Thunderstorm
Watch 259 for the following areas

In southeast Texas this cancels 1 County

Jackson

In southeast Texas this cancels 4 counties

Fort Bend Harris Liberty
Wharton

This includes the cities of Cleveland, Dayton, Edna, El Campo,
Houston, Humble, Katy, Liberty, Missouri City, Pasadena, Pierce,
Richmond, Rosenberg, Sugar Land, Tomball, and Wharton.